createdAt,value
2023-04-17T00:02:19.602Z,99.04
2023-04-17T00:04:48.449Z,100.00
2023-04-17T00:07:16.501Z,99.83
2023-04-17T00:09:44.278Z,99.27
2023-04-17T00:12:12.207Z,98.68
2023-04-17T00:14:40.081Z,98.85
2023-04-17T00:17:07.670Z,98.43
2023-04-17T00:19:36.746Z,99.76
2023-04-17T00:22:04.318Z,100.00
2023-04-17T00:24:32.065Z,100.00
2023-04-17T00:26:59.764Z,100.00
2023-04-17T00:29:27.602Z,100.00
2023-04-17T00:31:55.546Z,100.00
2023-04-17T00:34:23.445Z,100.00
2023-04-17T00:36:52.837Z,100.00
2023-04-17T00:39:20.724Z,100.00
2023-04-17T00:41:48.645Z,100.00
2023-04-17T00:44:19.479Z,100.00
2023-04-17T00:46:47.642Z,100.00
2023-04-17T00:49:15.697Z,100.00
2023-04-17T00:51:43.743Z,100.00
2023-04-17T00:54:13.670Z,100.00
2023-04-17T00:56:42.779Z,100.00
2023-04-17T00:59:13.589Z,100.00
2023-04-17T01:01:41.873Z,100.00
2023-04-17T01:04:10.480Z,100.00
2023-04-17T01:06:38.549Z,100.00
2023-04-17T01:09:06.406Z,100.00
2023-04-17T01:11:36.297Z,100.00
2023-04-17T01:14:04.260Z,100.00
2023-04-17T01:16:32.265Z,100.00
2023-04-17T01:19:00.321Z,100.00
2023-04-17T01:21:28.271Z,100.00
2023-04-17T01:23:56.803Z,100.00
2023-04-17T01:26:27.252Z,100.00
2023-04-17T01:28:56.285Z,100.00
2023-04-17T01:31:24.565Z,100.00
2023-04-17T01:33:53.393Z,100.00
2023-04-17T01:36:22.709Z,100.00
2023-04-17T01:38:50.567Z,100.00
2023-04-17T01:41:18.370Z,100.00
2023-04-17T01:43:48.111Z,100.00
2023-04-17T01:46:16.044Z,100.00
2023-04-17T01:48:44.031Z,100.00
2023-04-17T01:51:11.968Z,100.00
2023-04-17T01:53:40.634Z,100.00
2023-04-17T01:56:09.308Z,100.00
2023-04-17T01:58:37.709Z,100.00
2023-04-17T02:01:07.698Z,100.00
2023-04-17T02:03:35.920Z,100.00
2023-04-17T02:06:03.912Z,100.00
2023-04-17T02:08:31.832Z,100.00
2023-04-17T02:10:59.859Z,100.00
2023-04-17T02:13:31.202Z,100.00
2023-04-17T02:15:59.058Z,100.00
2023-04-17T02:18:29.352Z,100.00
2023-04-17T02:20:56.944Z,100.00
2023-04-17T02:23:24.592Z,100.00
2023-04-17T02:25:52.208Z,100.00
2023-04-17T02:28:19.830Z,100.00
2023-04-17T02:30:47.457Z,100.00
2023-04-17T02:33:14.959Z,100.00
2023-04-17T02:35:43.897Z,100.00
2023-04-17T02:38:11.464Z,100.00
2023-04-17T02:40:39.066Z,100.00
2023-04-17T02:43:06.698Z,100.00
2023-04-17T02:45:34.212Z,100.00
2023-04-17T02:48:02.064Z,100.00
2023-04-17T02:50:29.653Z,100.00
2023-04-17T02:52:58.586Z,100.00
2023-04-17T02:55:26.404Z,100.00
2023-04-17T02:57:53.982Z,100.00
2023-04-17T03:00:22.017Z,100.00
2023-04-17T03:02:49.753Z,100.00
2023-04-17T03:05:20.264Z,100.00
2023-04-17T03:07:47.928Z,100.00
2023-04-17T03:10:17.056Z,100.00
2023-04-17T03:12:44.602Z,100.00
2023-04-17T03:15:12.496Z,100.00
2023-04-17T03:17:40.186Z,100.00
2023-04-17T03:20:09.316Z,100.00
2023-04-17T03:22:37.400Z,100.00
2023-04-17T03:25:05.777Z,100.00
2023-04-17T03:27:34.664Z,100.00
2023-04-17T03:30:02.263Z,100.00
2023-04-17T03:32:29.859Z,100.00
2023-04-17T03:34:57.472Z,100.00
2023-04-17T03:37:25.096Z,100.00
2023-04-17T03:39:52.682Z,100.00
2023-04-17T03:42:20.320Z,100.00
2023-04-17T03:44:49.269Z,100.00
2023-04-17T03:47:16.848Z,100.00
2023-04-17T03:49:44.508Z,100.00
2023-04-17T03:52:12.077Z,100.00
2023-04-17T03:54:39.670Z,100.00
2023-04-17T03:57:07.263Z,100.00
2023-04-17T03:59:34.786Z,100.00
2023-04-17T04:02:03.884Z,100.00
2023-04-17T04:04:31.684Z,100.00
2023-04-17T04:07:01.554Z,100.00
2023-04-17T04:09:29.147Z,100.00
2023-04-17T04:11:57.309Z,100.00
2023-04-17T04:14:25.075Z,100.00
2023-04-17T04:16:52.801Z,100.00
2023-04-17T04:19:21.739Z,100.00
2023-04-17T04:21:49.673Z,100.00
2023-04-17T04:24:17.570Z,100.00
2023-04-17T04:26:47.368Z,100.00
2023-04-17T04:29:14.992Z,100.00
2023-04-17T04:31:46.448Z,100.00
2023-04-17T04:34:16.879Z,100.00
2023-04-17T04:36:49.976Z,100.00
2023-04-17T04:39:21.787Z,100.00
2023-04-17T04:41:50.192Z,100.00
2023-04-17T04:44:18.283Z,100.00
2023-04-17T04:46:46.209Z,100.00
2023-04-17T04:49:14.313Z,100.00
2023-04-17T04:51:42.098Z,100.00
2023-04-17T04:54:11.062Z,100.00
2023-04-17T04:56:38.699Z,100.00
2023-04-17T04:59:06.289Z,100.00
2023-04-17T05:01:33.951Z,100.00
2023-04-17T05:04:01.812Z,100.00
2023-04-17T05:06:29.572Z,100.00
2023-04-17T05:08:57.169Z,100.00
2023-04-17T05:11:26.135Z,100.00
2023-04-17T05:13:55.851Z,100.00
2023-04-17T05:16:23.464Z,100.00
2023-04-17T05:18:51.116Z,100.00
2023-04-17T05:21:18.781Z,100.00
2023-04-17T05:23:46.405Z,100.00
2023-04-17T05:26:14.004Z,100.00
2023-04-17T05:28:45.362Z,100.00
2023-04-17T05:31:12.976Z,100.00
2023-04-17T05:33:40.726Z,100.00
2023-04-17T05:36:09.217Z,100.00
2023-04-17T05:38:36.844Z,100.00
2023-04-17T05:41:07.345Z,100.00
2023-04-17T05:43:35.070Z,100.00
2023-04-17T05:46:04.106Z,100.00
2023-04-17T05:48:32.148Z,100.00
2023-04-17T05:50:59.864Z,100.00
2023-04-17T05:53:27.623Z,100.00
2023-04-17T05:55:55.284Z,100.00
2023-04-17T05:58:24.494Z,100.00
2023-04-17T06:00:52.888Z,100.00
2023-04-17T06:03:22.143Z,100.00
2023-04-17T06:05:49.976Z,100.00
2023-04-17T06:08:17.596Z,100.00
2023-04-17T06:10:46.575Z,100.00
2023-04-17T06:13:14.394Z,100.00
2023-04-17T06:15:42.195Z,100.00
2023-04-17T06:18:09.875Z,100.00
2023-04-17T06:20:40.158Z,100.00
2023-04-17T06:23:07.978Z,100.00
2023-04-17T06:25:35.619Z,100.00
2023-04-17T06:28:03.736Z,100.00
2023-04-17T06:30:31.345Z,100.00
2023-04-17T06:32:58.991Z,100.00
2023-04-17T06:35:26.632Z,100.00
2023-04-17T06:37:55.609Z,100.00
2023-04-17T06:40:23.233Z,100.00
2023-04-17T06:42:50.847Z,100.00
2023-04-17T06:45:18.713Z,100.00
2023-04-17T06:47:47.095Z,100.00
2023-04-17T06:50:15.290Z,100.00
2023-04-17T06:52:43.758Z,100.00
2023-04-17T06:55:12.863Z,100.00
2023-04-17T06:57:40.642Z,100.00
2023-04-17T07:00:09.352Z,100.00
2023-04-17T07:02:37.137Z,100.00
2023-04-17T07:05:07.016Z,100.00
2023-04-17T07:07:36.002Z,100.00
2023-04-17T07:10:03.877Z,100.00
2023-04-17T07:12:32.924Z,100.00
2023-04-17T07:15:00.764Z,100.00
2023-04-17T07:17:28.533Z,100.00
2023-04-17T07:19:56.640Z,100.00
2023-04-17T07:22:25.378Z,100.00
2023-04-17T07:24:54.815Z,100.00
2023-04-17T07:27:22.511Z,100.00
2023-04-17T07:29:54.531Z,100.00
2023-04-17T07:32:24.173Z,100.00
2023-04-17T07:34:52.067Z,100.00
2023-04-17T07:37:19.922Z,100.00
2023-04-17T07:39:49.887Z,100.00
2023-04-17T07:42:17.550Z,100.00
2023-04-17T07:44:45.168Z,100.00
2023-04-17T07:47:14.262Z,100.00
2023-04-17T07:49:41.930Z,100.00
2023-04-17T07:52:09.539Z,100.00
2023-04-17T07:54:37.217Z,100.00
2023-04-17T07:57:05.141Z,100.00
2023-04-17T07:59:32.913Z,98.97
2023-04-17T08:02:00.758Z,98.33
2023-04-17T08:04:30.060Z,96.13
2023-04-17T08:06:57.793Z,97.56
2023-04-17T08:09:25.502Z,97.16
2023-04-17T08:11:57.645Z,96.71
2023-04-17T08:14:25.989Z,96.41
2023-04-17T08:16:53.779Z,96.57
2023-04-17T08:19:21.458Z,96.71
2023-04-17T08:21:51.779Z,96.90
2023-04-17T08:24:20.104Z,94.08
2023-04-17T08:26:48.592Z,93.91
2023-04-17T08:29:16.382Z,94.21
2023-04-17T08:31:44.254Z,94.44
2023-04-17T08:34:14.946Z,95.29
2023-04-17T08:36:43.395Z,94.30
2023-04-17T08:39:12.925Z,94.17
2023-04-17T08:41:45.206Z,90.73
2023-04-17T08:44:12.937Z,90.67
2023-04-17T08:46:40.864Z,89.21
2023-04-17T08:49:08.639Z,87.87
2023-04-17T08:51:36.537Z,86.89
2023-04-17T08:54:04.308Z,86.59
2023-04-17T08:56:33.408Z,85.32
2023-04-17T08:59:01.025Z,86.02
2023-04-17T09:01:29.964Z,85.70
2023-04-17T09:03:58.053Z,84.94
2023-04-17T09:06:25.879Z,85.46
2023-04-17T09:08:58.742Z,84.85
2023-04-17T09:11:26.948Z,85.49
2023-04-17T09:13:56.109Z,86.09
2023-04-17T09:16:25.582Z,86.45
2023-04-17T09:19:06.434Z,87.17
2023-04-17T09:21:34.007Z,87.54
2023-04-17T09:24:01.652Z,89.25
2023-04-17T09:26:33.183Z,91.13
2023-04-17T09:29:08.595Z,93.82
2023-04-17T09:31:37.483Z,94.28
2023-04-17T09:34:07.476Z,91.94
2023-04-17T09:36:36.821Z,91.28
2023-04-17T09:39:06.329Z,92.11
2023-04-17T09:41:36.332Z,92.93
2023-04-17T09:44:06.431Z,94.04
2023-04-17T09:46:39.122Z,94.31
2023-04-17T09:49:12.013Z,95.05
2023-04-17T09:51:39.915Z,94.07
2023-04-17T09:54:07.911Z,94.46
2023-04-17T09:56:37.720Z,94.33
2023-04-17T09:59:07.526Z,95.35
2023-04-17T10:01:37.835Z,96.15
2023-04-17T10:04:06.683Z,95.67
2023-04-17T10:06:36.006Z,95.50
2023-04-17T10:09:04.321Z,94.79
2023-04-17T10:11:36.185Z,93.97
2023-04-17T10:14:11.641Z,92.78
2023-04-17T10:16:41.525Z,93.04
2023-04-17T10:19:27.842Z,92.85
2023-04-17T10:22:29.573Z,91.58
2023-04-17T10:25:18.332Z,92.40
2023-04-17T10:27:48.059Z,92.08
2023-04-17T10:30:17.671Z,91.06
2023-04-17T10:32:47.040Z,89.51
2023-04-17T10:35:37.678Z,89.58
2023-04-17T10:38:07.071Z,89.43
2023-04-17T10:40:35.872Z,88.71
2023-04-17T10:43:05.314Z,87.56
2023-04-17T10:46:06.483Z,87.98
2023-04-17T10:48:36.037Z,85.87
2023-04-17T10:51:42.585Z,85.55
2023-04-17T10:54:13.549Z,85.02
2023-04-17T10:56:42.400Z,85.00
2023-04-17T10:59:11.323Z,85.14
2023-04-17T11:01:41.766Z,86.48
2023-04-17T11:04:10.530Z,87.12
2023-04-17T11:06:39.955Z,87.61
2023-04-17T11:09:10.381Z,86.95
2023-04-17T11:11:44.543Z,87.75
2023-04-17T11:14:15.209Z,86.42
2023-04-17T11:16:45.340Z,85.36
2023-04-17T11:19:14.398Z,85.40
2023-04-17T11:21:43.612Z,84.75
2023-04-17T11:24:11.256Z,85.22
2023-04-17T11:26:43.632Z,82.15
2023-04-17T11:29:15.406Z,81.96
2023-04-17T11:31:44.651Z,81.69
2023-04-17T11:34:12.564Z,82.67
2023-04-17T11:36:40.274Z,80.08
2023-04-17T11:39:08.250Z,79.80
2023-04-17T11:41:38.810Z,77.26
2023-04-17T11:44:09.939Z,76.43
2023-04-17T11:46:37.872Z,77.06
2023-04-17T11:49:06.973Z,75.93
2023-04-17T11:51:34.810Z,75.23
2023-04-17T11:54:02.428Z,75.46
2023-04-17T11:56:30.875Z,75.54
2023-04-17T11:59:00.169Z,74.45
2023-04-17T12:01:28.818Z,73.54
2023-04-17T12:03:57.848Z,73.50
2023-04-17T12:06:36.819Z,74.65
2023-04-17T12:09:06.390Z,73.93
2023-04-17T12:11:34.340Z,73.82
2023-04-17T12:14:02.400Z,75.41
2023-04-17T12:16:30.591Z,75.58
2023-04-17T12:18:58.609Z,75.71
2023-04-17T12:21:27.645Z,76.52
2023-04-17T12:23:55.269Z,75.90
2023-04-17T12:26:24.899Z,73.80
2023-04-17T12:28:52.678Z,71.89
2023-04-17T12:31:20.359Z,70.50
2023-04-17T12:33:47.949Z,71.34
2023-04-17T12:36:15.650Z,70.88
2023-04-17T12:38:44.642Z,69.31
2023-04-17T12:41:12.235Z,70.73
2023-04-17T12:43:39.809Z,70.55
2023-04-17T12:46:07.470Z,70.05
2023-04-17T12:48:35.128Z,71.95
2023-04-17T12:51:02.699Z,70.44
2023-04-17T12:53:30.494Z,71.54
2023-04-17T12:55:59.455Z,72.38
2023-04-17T12:58:27.070Z,72.77
2023-04-17T13:00:54.721Z,72.27
2023-04-17T13:03:22.469Z,72.95
2023-04-17T13:05:52.750Z,71.92
2023-04-17T13:08:20.354Z,71.24
2023-04-17T13:10:47.988Z,71.67
2023-04-17T13:13:17.188Z,71.98
2023-04-17T13:15:46.574Z,72.12
2023-04-17T13:18:14.325Z,73.72
2023-04-17T13:20:41.911Z,74.22
2023-04-17T13:23:11.813Z,75.24
2023-04-17T13:25:39.432Z,76.34
2023-04-17T13:28:07.030Z,76.42
2023-04-17T13:30:37.141Z,77.15
2023-04-17T13:33:05.169Z,77.35
2023-04-17T13:35:32.951Z,77.38
2023-04-17T13:38:02.252Z,77.36
2023-04-17T13:40:30.095Z,76.72
2023-04-17T13:42:58.390Z,77.53
2023-04-17T13:45:26.128Z,78.11
2023-04-17T13:47:55.179Z,78.95
2023-04-17T13:50:22.905Z,78.94
2023-04-17T13:52:50.908Z,78.87
2023-04-17T13:55:18.720Z,79.34
2023-04-17T13:57:46.318Z,80.38
2023-04-17T14:00:15.205Z,79.54
2023-04-17T14:02:43.083Z,80.51
2023-04-17T14:05:12.297Z,80.58
2023-04-17T14:07:39.959Z,80.56
2023-04-17T14:10:09.200Z,80.21
2023-04-17T14:12:37.096Z,79.04
2023-04-17T14:15:06.427Z,79.62
2023-04-17T14:17:34.401Z,78.69
2023-04-17T14:20:02.069Z,78.60
2023-04-17T14:22:31.031Z,78.89
2023-04-17T14:24:58.648Z,79.47
2023-04-17T14:27:26.357Z,79.54
2023-04-17T14:29:53.943Z,79.17
2023-04-17T14:32:21.601Z,79.39
2023-04-17T14:34:49.286Z,79.87
2023-04-17T14:37:16.873Z,80.03
2023-04-17T14:39:45.833Z,79.97
2023-04-17T14:42:13.413Z,79.25
2023-04-17T14:44:43.208Z,79.30
2023-04-17T14:47:11.001Z,79.68
2023-04-17T14:49:38.778Z,79.20
2023-04-17T14:52:06.756Z,78.87
2023-04-17T14:54:34.714Z,78.76
2023-04-17T14:57:03.881Z,78.22
2023-04-17T14:59:31.831Z,78.15
2023-04-17T15:01:59.724Z,75.95
2023-04-17T15:04:27.687Z,76.52
2023-04-17T15:06:55.414Z,75.13
2023-04-17T15:09:23.038Z,75.59
2023-04-17T15:11:50.735Z,75.39
2023-04-17T15:14:20.147Z,75.66
2023-04-17T15:16:47.712Z,75.44
2023-04-17T15:19:15.348Z,75.33
2023-04-17T15:21:43.141Z,74.87
2023-04-17T15:24:10.675Z,75.00
2023-04-17T15:26:38.355Z,74.54
2023-04-17T15:29:05.943Z,73.87
2023-04-17T15:31:34.886Z,74.15
2023-04-17T15:34:02.495Z,74.56
2023-04-17T15:36:32.232Z,74.30
2023-04-17T15:38:59.782Z,75.01
2023-04-17T15:41:27.648Z,75.85
2023-04-17T15:43:55.287Z,75.73
2023-04-17T15:46:23.094Z,74.63
2023-04-17T15:49:04.857Z,73.53
2023-04-17T15:51:35.642Z,74.56
2023-04-17T15:54:03.289Z,74.98
2023-04-17T15:56:30.890Z,74.38
2023-04-17T15:58:58.477Z,74.13
2023-04-17T16:01:26.413Z,73.70
2023-04-17T16:03:55.778Z,73.33
2023-04-17T16:06:23.523Z,72.99
2023-04-17T16:08:51.121Z,72.01
2023-04-17T16:11:18.740Z,72.67
2023-04-17T16:13:46.287Z,72.45
2023-04-17T16:16:13.989Z,71.38
2023-04-17T16:18:41.677Z,71.77
2023-04-17T16:21:12.433Z,71.70
2023-04-17T16:23:40.085Z,71.76
2023-04-17T16:26:07.758Z,72.45
2023-04-17T16:28:35.486Z,72.83
2023-04-17T16:31:03.185Z,72.19
2023-04-17T16:33:30.755Z,71.95
2023-04-17T16:35:58.309Z,72.39
2023-04-17T16:38:27.579Z,72.38
2023-04-17T16:40:57.020Z,71.68
2023-04-17T16:43:24.592Z,71.68
2023-04-17T16:45:52.250Z,71.21
2023-04-17T16:48:19.951Z,72.32
2023-04-17T16:50:47.561Z,72.18
2023-04-17T16:53:15.245Z,72.12
2023-04-17T16:55:44.141Z,71.91
2023-04-17T16:58:11.742Z,72.62
2023-04-17T17:00:39.465Z,72.83
2023-04-17T17:03:07.365Z,72.47
2023-04-17T17:05:35.088Z,71.72
2023-04-17T17:08:02.673Z,72.49
2023-04-17T17:10:30.392Z,72.78
2023-04-17T17:12:59.304Z,72.27
2023-04-17T17:15:26.921Z,72.41
2023-04-17T17:17:54.455Z,73.26
2023-04-17T17:20:22.092Z,73.53
2023-04-17T17:22:49.647Z,72.99
2023-04-17T17:25:17.409Z,72.75
2023-04-17T17:27:44.982Z,73.66
2023-04-17T17:30:15.175Z,73.13
2023-04-17T17:32:42.910Z,72.71
2023-04-17T17:35:11.026Z,72.81
2023-04-17T17:37:38.565Z,72.25
2023-04-17T17:40:07.549Z,72.24
2023-04-17T17:42:35.312Z,72.13
2023-04-17T17:45:03.074Z,72.52
2023-04-17T17:47:32.234Z,72.67
2023-04-17T17:49:59.844Z,73.08
2023-04-17T17:52:27.408Z,72.87
2023-04-17T17:54:55.017Z,73.14
2023-04-17T17:57:22.815Z,73.22
2023-04-17T17:59:50.395Z,73.25
2023-04-17T18:02:18.194Z,73.50
2023-04-17T18:04:47.354Z,73.35
2023-04-17T18:07:15.187Z,73.19
2023-04-17T18:09:42.723Z,73.23
2023-04-17T18:12:10.286Z,72.75
2023-04-17T18:14:38.224Z,72.79
2023-04-17T18:17:06.155Z,73.01
2023-04-17T18:19:34.024Z,73.23
2023-04-17T18:22:02.949Z,74.05
2023-04-17T18:24:31.684Z,74.79
2023-04-17T18:26:59.297Z,75.18
2023-04-17T18:29:26.916Z,75.37
2023-04-17T18:31:54.778Z,75.74
2023-04-17T18:34:23.252Z,75.54
2023-04-17T18:36:51.026Z,75.53
2023-04-17T18:39:20.513Z,75.87
2023-04-17T18:41:48.393Z,75.94
2023-04-17T18:44:16.070Z,76.40
2023-04-17T18:46:43.684Z,76.66
2023-04-17T18:49:11.304Z,77.20
2023-04-17T18:51:38.857Z,76.44
2023-04-17T18:54:08.508Z,76.03
2023-04-17T18:56:37.485Z,75.17
2023-04-17T18:59:05.174Z,74.17
2023-04-17T19:01:32.812Z,74.00
2023-04-17T19:04:00.444Z,73.69
2023-04-17T19:06:28.009Z,72.88
2023-04-17T19:08:56.846Z,74.03
2023-04-17T19:11:24.573Z,74.52
2023-04-17T19:13:53.533Z,75.42
2023-04-17T19:16:21.275Z,75.51
2023-04-17T19:18:49.024Z,75.80
2023-04-17T19:21:17.075Z,76.33
2023-04-17T19:23:44.753Z,75.26
2023-04-17T19:26:15.180Z,75.57
2023-04-17T19:28:43.050Z,75.14
2023-04-17T19:31:12.589Z,75.27
2023-04-17T19:33:40.386Z,75.04
2023-04-17T19:36:08.080Z,75.35
2023-04-17T19:38:37.491Z,74.75
2023-04-17T19:41:17.099Z,75.15
2023-04-17T19:43:44.846Z,75.48
2023-04-17T19:46:14.783Z,75.15
2023-04-17T19:48:43.603Z,75.73
2023-04-17T19:51:11.632Z,75.86
2023-04-17T19:53:40.383Z,75.73
2023-04-17T19:56:09.269Z,75.55
2023-04-17T19:58:37.148Z,75.30
2023-04-17T20:01:05.489Z,75.94
2023-04-17T20:03:35.440Z,76.12
2023-04-17T20:06:03.547Z,75.46
2023-04-17T20:08:31.403Z,75.15
2023-04-17T20:10:58.937Z,75.11
2023-04-17T20:13:27.840Z,74.53
2023-04-17T20:15:55.466Z,74.53
2023-04-17T20:18:23.302Z,74.63
2023-04-17T20:20:52.229Z,74.66
2023-04-17T20:23:20.055Z,74.84
2023-04-17T20:25:48.179Z,75.22
2023-04-17T20:28:16.376Z,75.45
2023-04-17T20:30:44.116Z,75.80
2023-04-17T20:33:12.015Z,76.61
2023-04-17T20:35:40.071Z,76.49
2023-04-17T20:38:10.000Z,76.92
2023-04-17T20:40:38.000Z,77.03
2023-04-17T20:43:05.913Z,77.22
2023-04-17T20:45:33.759Z,76.74
2023-04-17T20:48:01.896Z,77.12
2023-04-17T20:50:29.999Z,77.19
2023-04-17T20:52:57.772Z,77.11
2023-04-17T20:55:27.172Z,77.10
2023-04-17T20:57:55.226Z,77.26
2023-04-17T21:00:23.086Z,77.46
2023-04-17T21:02:50.998Z,77.31
2023-04-17T21:05:19.257Z,78.13
2023-04-17T21:07:48.135Z,77.91
2023-04-17T21:10:17.518Z,78.11
2023-04-17T21:12:46.480Z,78.27
2023-04-17T21:15:14.364Z,77.54
2023-04-17T21:17:46.112Z,77.51
2023-04-17T21:20:14.284Z,78.15
2023-04-17T21:22:42.168Z,77.88
2023-04-17T21:25:11.251Z,77.81
2023-04-17T21:27:39.199Z,77.85
2023-04-17T21:30:10.635Z,78.11
2023-04-17T21:32:40.207Z,78.09
2023-04-17T21:35:08.651Z,78.30
2023-04-17T21:37:37.040Z,78.26
2023-04-17T21:40:05.626Z,78.16
2023-04-17T21:42:33.657Z,78.17
2023-04-17T21:45:01.475Z,77.90
2023-04-17T21:47:30.727Z,78.01
2023-04-17T21:50:00.460Z,78.26
2023-04-17T21:52:28.297Z,77.71
2023-04-17T21:55:02.716Z,77.68
2023-04-17T21:57:30.729Z,77.63
2023-04-17T21:59:58.831Z,77.71
2023-04-17T22:02:27.078Z,77.98
2023-04-17T22:04:56.625Z,78.08
2023-04-17T22:07:24.601Z,77.64
2023-04-17T22:09:52.260Z,77.43
2023-04-17T22:12:20.584Z,77.73
2023-04-17T22:14:48.672Z,77.67
2023-04-17T22:17:16.668Z,77.26
2023-04-17T22:19:44.603Z,77.78
2023-04-17T22:22:14.113Z,78.23
2023-04-17T22:24:42.891Z,78.35
2023-04-17T22:27:10.744Z,77.98
2023-04-17T22:29:38.655Z,78.00
2023-04-17T22:32:06.746Z,78.17
2023-04-17T22:34:34.324Z,77.61
2023-04-17T22:37:02.163Z,77.81
2023-04-17T22:39:31.597Z,77.75
2023-04-17T22:41:59.330Z,77.87
2023-04-17T22:44:27.060Z,77.61
2023-04-17T22:46:54.874Z,77.49
2023-04-17T22:49:22.702Z,77.62
2023-04-17T22:51:51.212Z,77.16
2023-04-17T22:54:22.853Z,77.22
2023-04-17T22:56:52.104Z,77.00
2023-04-17T22:59:19.716Z,77.24
2023-04-17T23:01:47.440Z,77.27
2023-04-17T23:04:15.326Z,77.14
2023-04-17T23:06:43.183Z,76.85
2023-04-17T23:09:11.135Z,76.84
2023-04-17T23:11:38.711Z,76.69
2023-04-17T23:14:07.694Z,76.82
2023-04-17T23:16:35.298Z,77.36
2023-04-17T23:19:03.305Z,77.13
2023-04-17T23:21:31.020Z,77.53
2023-04-17T23:23:58.601Z,77.60
2023-04-17T23:26:26.266Z,77.72
2023-04-17T23:28:53.909Z,77.38
2023-04-17T23:31:22.974Z,77.88
2023-04-17T23:33:50.646Z,77.89
2023-04-17T23:36:18.248Z,78.11
2023-04-17T23:38:45.786Z,78.01
2023-04-17T23:41:13.368Z,78.06
2023-04-17T23:43:40.972Z,78.11
2023-04-17T23:46:10.184Z,78.05
2023-04-17T23:48:39.150Z,78.23
2023-04-17T23:51:06.755Z,78.06
2023-04-17T23:53:34.381Z,78.66
2023-04-17T23:56:02.050Z,78.94
2023-04-17T23:58:29.639Z,78.94
